Mersa Matruh, Egypt
Current Conditions -  °F | °C
As of 8:00 PM on Monday 22 Dec 2014 (Local Time) from HEMM Reporting Station
Scattered Clouds Scattered Clouds  
Wind Chill: 16°   Ceiling: Unl
Heat Index: 16°   Visibility: 6mi
Dew Point:   Wind: 15mph
Humidity: 55%   Direction: 340°NNW
Pressure: 30.24"   Gusts: NA
Location:  31.32°N, 27.22°E
Report Text: HEMM 221800Z 34013KT 9999 SCT020 16/07 Q1024 NOSIG
Loading
Personal Weather Stations






























Interactive Weather Map New forecast layout! Learn more

10-Day Weather Forecast

Advertisements
Track Severe Weather on mobile